createdAt,value
2019-04-26T17:18:37.388Z,17.88
2019-04-26T17:21:08.532Z,17.86
2019-04-26T17:23:44.202Z,17.84
2019-04-26T17:26:23.693Z,17.85
2019-04-26T17:28:55.619Z,17.85
2019-04-26T17:31:27.093Z,17.83
2019-04-26T17:33:58.066Z,17.81
2019-04-26T17:36:29.028Z,17.82
2019-04-26T17:39:00.633Z,17.80
2019-04-26T17:41:33.285Z,17.81
2019-04-26T17:44:10.709Z,17.81
2019-04-26T17:46:37.068Z,17.81
2019-04-26T17:49:08.034Z,17.81
2019-04-26T17:51:42.398Z,17.82
2019-04-26T17:54:26.602Z,17.82
2019-04-26T17:56:45.445Z,17.84
2019-04-26T17:59:32.564Z,17.87
2019-04-26T18:01:59.530Z,17.88
2019-04-26T18:04:31.959Z,17.88
2019-04-26T18:07:02.954Z,17.87
2019-04-26T18:09:43.046Z,17.88
2019-04-26T18:12:03.345Z,17.86
2019-04-26T18:14:32.539Z,17.85
2019-04-26T18:17:05.167Z,17.84
2019-04-26T18:19:43.734Z,17.81
2019-04-26T18:22:23.219Z,17.79
2019-04-26T18:24:54.349Z,17.75
2019-04-26T18:27:25.397Z,17.74
2019-04-26T18:29:59.872Z,17.71
2019-04-26T18:32:29.140Z,17.69
2019-04-26T18:35:00.133Z,17.67
2019-04-26T18:37:36.457Z,17.65
2019-04-26T18:40:06.584Z,17.63
2019-04-26T18:42:41.879Z,17.60
2019-04-26T18:45:10.581Z,17.58
2019-04-26T18:47:43.753Z,17.56
2019-04-26T18:50:16.437Z,17.53
2019-04-26T18:52:59.890Z,17.51
2019-04-26T18:55:31.174Z,17.42
2019-04-26T18:58:05.381Z,17.41
2019-04-26T19:00:36.654Z,17.39
2019-04-26T19:03:07.638Z,17.38
2019-04-26T19:05:38.631Z,17.37
2019-04-26T19:08:10.054Z,17.36
2019-04-26T19:10:43.172Z,17.36
2019-04-26T19:13:18.352Z,17.33
2019-04-26T19:15:51.581Z,17.34
2019-04-26T19:18:32.133Z,17.32
2019-04-26T19:21:03.257Z,17.31
2019-04-26T19:23:34.233Z,17.28
2019-04-26T19:26:05.292Z,17.27
2019-04-26T19:28:39.939Z,17.27
2019-04-26T19:31:09.951Z,17.26
2019-04-26T19:33:42.777Z,17.26
2019-04-26T19:36:14.016Z,17.24
2019-04-26T19:38:49.941Z,17.22
2019-04-26T19:41:27.212Z,17.21
2019-04-26T19:43:58.386Z,17.22
2019-04-26T19:46:31.596Z,17.20
2019-04-26T19:49:21.513Z,17.20
2019-04-26T19:52:00.547Z,17.22
2019-04-26T19:54:38.330Z,17.18
2019-04-26T19:57:07.936Z,17.16
2019-04-26T19:59:38.939Z,17.15
2019-04-26T20:02:12.830Z,17.15
2019-04-26T20:04:43.807Z,17.16
2019-04-26T20:07:14.767Z,17.17
2019-04-26T20:09:45.782Z,17.19
2019-04-26T20:12:16.772Z,17.19
2019-04-26T20:14:51.254Z,17.21
2019-04-26T20:17:21.840Z,17.22
2019-04-26T20:19:54.490Z,17.21
2019-04-26T20:22:28.683Z,17.20
2019-04-26T20:24:58.506Z,17.19
2019-04-26T20:27:29.524Z,17.19
2019-04-26T20:30:02.381Z,17.17
2019-04-26T20:32:34.923Z,17.16
2019-04-26T20:35:13.219Z,17.16
2019-04-26T20:37:45.459Z,17.16
2019-04-26T20:40:21.751Z,17.15
2019-04-26T20:42:49.375Z,17.17
2019-04-26T20:45:22.032Z,17.16
2019-04-26T20:47:55.659Z,17.16
2019-04-26T20:50:28.494Z,17.16
2019-04-26T20:53:00.538Z,17.16
2019-04-26T20:55:34.592Z,17.16
2019-04-26T20:58:08.515Z,17.16
2019-04-26T21:00:38.120Z,17.15
2019-04-26T21:03:21.179Z,17.15
2019-04-26T21:05:46.172Z,17.15
2019-04-26T21:08:15.427Z,17.15
2019-04-26T21:10:46.569Z,17.16
2019-04-26T21:13:17.568Z,17.14
2019-04-26T21:15:56.388Z,17.12
2019-04-26T21:18:22.962Z,17.12
2019-04-26T21:20:54.099Z,17.12
2019-04-26T21:23:25.096Z,17.12
2019-04-26T21:26:07.073Z,17.10
2019-04-26T21:28:43.915Z,17.10
2019-04-26T21:31:22.540Z,17.08
2019-04-26T21:33:55.193Z,17.06
2019-04-26T21:36:45.947Z,17.04
2019-04-26T21:39:23.929Z,17.04
2019-04-26T21:41:56.549Z,16.98
2019-04-26T21:44:27.543Z,16.97
2019-04-26T21:46:59.056Z,16.97
2019-04-26T21:49:30.207Z,16.96
2019-04-26T21:52:01.183Z,16.96
2019-04-26T21:54:33.015Z,16.95
2019-04-26T21:57:03.775Z,16.94
2019-04-26T21:59:40.711Z,16.88
2019-04-26T22:02:08.784Z,16.87
2019-04-26T22:04:39.762Z,16.86
2019-04-26T22:07:10.742Z,16.86
2019-04-26T22:09:58.121Z,16.84
2019-04-26T22:12:31.269Z,16.81
2019-04-26T22:15:19.784Z,16.79
2019-04-26T22:17:55.179Z,16.76
2019-04-26T22:20:27.855Z,16.73
2019-04-26T22:23:03.157Z,16.71
2019-04-26T22:25:35.768Z,16.72
2019-04-26T22:28:06.776Z,16.74
2019-04-26T22:30:37.808Z,16.76
2019-04-26T22:33:08.812Z,16.78
2019-04-26T22:35:39.787Z,16.78
2019-04-26T22:38:17.535Z,16.81
2019-04-26T22:40:53.289Z,16.81
2019-04-26T22:43:38.974Z,16.81
2019-04-26T22:46:11.592Z,16.82
2019-04-26T22:48:44.223Z,16.79
2019-04-26T22:51:15.198Z,16.80
2019-04-26T22:53:46.173Z,16.81
2019-04-26T22:56:17.646Z,16.81
2019-04-26T22:58:48.643Z,16.82
2019-04-26T23:01:19.649Z,16.81
2019-04-26T23:03:50.623Z,16.82
2019-04-26T23:06:23.523Z,16.82
2019-04-26T23:08:55.827Z,16.81
2019-04-26T23:11:27.150Z,16.81
2019-04-26T23:14:18.837Z,16.81
2019-04-26T23:17:08.453Z,16.80
2019-04-26T23:19:43.779Z,16.77
2019-04-26T23:22:14.837Z,16.73
2019-04-26T23:24:49.207Z,16.73
2019-04-26T23:27:20.439Z,16.73
2019-04-26T23:29:56.828Z,16.74
2019-04-26T23:32:25.225Z,16.74
2019-04-26T23:34:58.229Z,16.75
2019-04-26T23:37:28.904Z,16.75
2019-04-26T23:40:00.249Z,16.75
2019-04-26T23:42:33.127Z,16.74
2019-04-26T23:45:05.130Z,16.74
2019-04-26T23:47:38.899Z,16.73
2019-04-26T23:50:08.847Z,16.74
2019-04-26T23:52:39.908Z,16.73
2019-04-26T23:55:10.876Z,16.73
2019-04-26T23:57:43.440Z,16.72
